createdAt,value
2023-05-05T00:01:32.505Z,100.00
2023-05-05T00:06:37.737Z,100.00
2023-05-05T00:11:41.602Z,100.00
2023-05-05T00:16:45.584Z,100.00
2023-05-05T00:21:51.086Z,100.00
2023-05-05T00:26:54.972Z,100.00
2023-05-05T00:31:59.035Z,100.00
2023-05-05T00:37:04.630Z,100.00
2023-05-05T00:42:08.566Z,100.00
2023-05-05T00:47:13.941Z,100.00
2023-05-05T00:52:19.298Z,100.00
2023-05-05T00:57:23.554Z,100.00
2023-05-05T01:02:27.774Z,100.00
2023-05-05T01:07:42.455Z,100.00
2023-05-05T01:12:54.771Z,100.00
2023-05-05T01:18:04.049Z,100.00
2023-05-05T01:23:13.560Z,100.00
2023-05-05T01:28:29.147Z,100.00
2023-05-05T01:33:38.047Z,100.00
2023-05-05T01:38:46.264Z,100.00
2023-05-05T01:43:51.702Z,100.00
2023-05-05T01:48:58.386Z,100.00
2023-05-05T01:54:05.665Z,100.00
2023-05-05T01:59:10.885Z,100.00
2023-05-05T02:04:18.478Z,100.00
2023-05-05T02:09:24.951Z,100.00
2023-05-05T02:14:31.612Z,100.00
2023-05-05T02:19:41.157Z,100.00
2023-05-05T02:24:45.873Z,100.00
2023-05-05T02:29:54.041Z,100.00
2023-05-05T02:35:02.820Z,100.00
2023-05-05T02:40:10.236Z,100.00
2023-05-05T02:45:19.530Z,100.00
2023-05-05T02:50:27.041Z,100.00
2023-05-05T02:55:45.302Z,100.00
2023-05-05T03:00:56.884Z,100.00
2023-05-05T03:06:12.472Z,100.00
2023-05-05T03:11:25.117Z,100.00
2023-05-05T03:16:32.341Z,100.00
2023-05-05T03:21:38.653Z,100.00
2023-05-05T03:26:44.321Z,100.00
2023-05-05T03:31:48.736Z,100.00
2023-05-05T03:36:54.087Z,100.00
2023-05-05T03:41:58.103Z,100.00
2023-05-05T03:47:06.852Z,100.00
2023-05-05T03:52:15.153Z,100.00
2023-05-05T03:57:20.401Z,100.00
2023-05-05T04:02:24.449Z,100.00
2023-05-05T04:07:29.897Z,100.00
2023-05-05T04:12:33.999Z,100.00
2023-05-05T04:17:38.147Z,100.00
2023-05-05T04:22:43.742Z,100.00
2023-05-05T04:27:47.718Z,100.00
2023-05-05T04:32:51.872Z,100.00
2023-05-05T04:37:57.250Z,100.00
2023-05-05T04:43:01.468Z,100.00
2023-05-05T04:48:06.974Z,100.00
2023-05-05T04:53:12.382Z,100.00
2023-05-05T04:58:16.843Z,100.00
2023-05-05T05:03:22.213Z,100.00
2023-05-05T05:08:27.597Z,100.00
2023-05-05T05:13:31.625Z,100.00
2023-05-05T05:18:35.510Z,100.00
2023-05-05T05:23:41.131Z,100.00
2023-05-05T05:28:45.397Z,100.00
2023-05-05T05:33:49.530Z,100.00
2023-05-05T05:38:54.984Z,100.00
2023-05-05T05:43:59.080Z,95.37
2023-05-05T05:49:03.878Z,98.80
2023-05-05T05:54:09.548Z,98.70
2023-05-05T05:59:13.711Z,100.00
2023-05-05T06:04:18.886Z,100.00
2023-05-05T06:09:24.299Z,91.33
2023-05-05T06:14:30.740Z,92.35
2023-05-05T06:19:36.985Z,100.00
2023-05-05T06:24:42.160Z,96.19
2023-05-05T06:29:46.466Z,99.14
2023-05-05T06:34:50.408Z,90.07
2023-05-05T06:39:56.835Z,86.39
2023-05-05T06:45:00.896Z,88.73
2023-05-05T06:50:05.554Z,91.54
2023-05-05T06:55:11.559Z,98.21
2023-05-05T07:00:17.466Z,95.74
2023-05-05T07:05:21.931Z,92.30
2023-05-05T07:10:28.616Z,90.13
2023-05-05T07:15:32.654Z,91.37
2023-05-05T07:20:36.632Z,87.22
2023-05-05T07:25:42.762Z,88.69
2023-05-05T07:30:46.813Z,86.11
2023-05-05T07:35:50.969Z,84.89
2023-05-05T07:40:56.303Z,81.68
2023-05-05T07:46:02.679Z,82.38
2023-05-05T07:51:06.648Z,84.70
2023-05-05T07:56:12.128Z,82.29
2023-05-05T08:01:16.218Z,80.69
2023-05-05T08:06:22.215Z,81.02
2023-05-05T08:11:29.558Z,81.85
2023-05-05T08:16:33.825Z,81.82
2023-05-05T08:21:37.896Z,79.22
2023-05-05T08:26:43.257Z,78.98
2023-05-05T08:31:47.246Z,80.19
2023-05-05T08:36:51.335Z,74.75
2023-05-05T08:41:56.701Z,67.00
2023-05-05T08:47:01.119Z,79.21
2023-05-05T08:52:10.303Z,74.90
2023-05-05T08:57:20.917Z,71.54
2023-05-05T09:02:28.633Z,76.57
2023-05-05T09:07:33.562Z,70.79
2023-05-05T09:12:41.406Z,72.89
2023-05-05T09:17:46.265Z,76.90
2023-05-05T09:22:51.713Z,75.24
2023-05-05T09:27:57.127Z,73.71
2023-05-05T09:33:02.310Z,70.08
2023-05-05T09:38:12.970Z,69.61
2023-05-05T09:43:19.596Z,68.57
2023-05-05T09:48:27.554Z,73.60
2023-05-05T09:53:40.997Z,67.40
2023-05-05T09:58:46.490Z,63.18
2023-05-05T10:03:52.569Z,61.54
2023-05-05T10:09:02.343Z,68.00
2023-05-05T10:14:09.826Z,70.12
2023-05-05T10:19:16.445Z,58.85
2023-05-05T10:24:29.412Z,60.78
2023-05-05T10:29:41.393Z,56.83
2023-05-05T10:34:52.206Z,56.22
2023-05-05T10:39:57.570Z,51.93
2023-05-05T10:45:03.302Z,55.13
2023-05-05T10:50:15.123Z,52.55
2023-05-05T10:55:22.577Z,55.33
2023-05-05T11:00:55.689Z,54.95
2023-05-05T11:06:15.801Z,56.99
2023-05-05T11:12:00.329Z,53.22
2023-05-05T11:17:05.849Z,51.44
2023-05-05T11:22:09.897Z,48.58
2023-05-05T11:27:13.957Z,43.86
2023-05-05T11:32:20.021Z,39.75
2023-05-05T11:37:25.262Z,38.21
2023-05-05T11:42:30.408Z,40.53
2023-05-05T11:47:36.304Z,37.62
2023-05-05T11:52:40.214Z,40.48
2023-05-05T11:57:44.054Z,36.67
2023-05-05T12:02:58.213Z,34.05
2023-05-05T12:08:02.805Z,34.65
2023-05-05T12:13:19.155Z,31.84
2023-05-05T12:18:24.653Z,36.76
2023-05-05T12:23:30.186Z,36.72
2023-05-05T12:28:46.451Z,34.11
2023-05-05T12:33:53.812Z,35.61
2023-05-05T12:38:57.851Z,38.34
2023-05-05T12:44:03.244Z,32.43
2023-05-05T12:49:09.868Z,30.74
2023-05-05T12:54:13.883Z,29.61
2023-05-05T12:59:30.789Z,31.25
2023-05-05T13:04:49.542Z,30.77
2023-05-05T13:10:07.119Z,31.56
2023-05-05T13:15:12.423Z,27.39
2023-05-05T13:20:17.992Z,27.13
2023-05-05T13:25:21.983Z,30.40
2023-05-05T13:30:25.932Z,29.73
2023-05-05T13:35:31.401Z,30.27
2023-05-05T13:40:35.481Z,30.68
2023-05-05T13:45:41.241Z,28.56
2023-05-05T13:50:47.234Z,26.35
2023-05-05T13:55:51.140Z,27.73
2023-05-05T14:00:56.349Z,27.62
2023-05-05T14:06:01.523Z,27.64
2023-05-05T14:11:05.577Z,29.76
2023-05-05T14:16:09.723Z,30.42
2023-05-05T14:21:15.113Z,30.09
2023-05-05T14:26:19.092Z,31.35
2023-05-05T14:31:23.173Z,29.92
2023-05-05T14:36:28.649Z,31.10
2023-05-05T14:41:32.746Z,30.70
2023-05-05T14:46:36.829Z,30.97
2023-05-05T14:51:42.822Z,29.12
2023-05-05T14:56:46.692Z,31.04
2023-05-05T15:01:50.596Z,32.07
2023-05-05T15:06:56.484Z,32.30
2023-05-05T15:12:00.415Z,32.48
2023-05-05T15:17:04.343Z,31.50
2023-05-05T15:22:09.679Z,30.88
2023-05-05T15:27:13.690Z,31.57
2023-05-05T15:32:18.065Z,31.81
2023-05-05T15:37:23.632Z,31.48
2023-05-05T15:42:27.912Z,30.63
2023-05-05T15:47:31.942Z,31.09
2023-05-05T15:52:37.301Z,29.87
2023-05-05T15:57:41.458Z,30.95
2023-05-05T16:02:45.681Z,32.48
2023-05-05T16:07:52.546Z,34.23
2023-05-05T16:12:56.976Z,38.23
2023-05-05T16:18:00.929Z,40.13
2023-05-05T16:23:06.874Z,41.24
2023-05-05T16:28:10.797Z,41.22
2023-05-05T16:33:14.691Z,42.99
2023-05-05T16:38:19.985Z,43.17
2023-05-05T16:43:23.848Z,44.17
2023-05-05T16:48:27.721Z,44.24
2023-05-05T16:53:33.044Z,44.87
2023-05-05T16:58:36.904Z,46.21
2023-05-05T17:03:40.993Z,46.27
2023-05-05T17:08:46.388Z,47.81
2023-05-05T17:13:50.277Z,48.16
2023-05-05T17:19:08.823Z,47.18
2023-05-05T17:24:14.132Z,47.13
2023-05-05T17:29:19.890Z,50.64
2023-05-05T17:34:23.841Z,51.13
2023-05-05T17:39:29.110Z,51.55
2023-05-05T17:44:33.132Z,52.54
2023-05-05T17:49:37.068Z,56.02
2023-05-05T17:54:42.758Z,58.49
2023-05-05T17:59:47.175Z,59.68
2023-05-05T18:04:51.290Z,59.33
2023-05-05T18:09:56.974Z,59.89
2023-05-05T18:15:01.627Z,60.41
2023-05-05T18:20:07.111Z,61.00
2023-05-05T18:25:12.908Z,62.90
2023-05-05T18:30:17.537Z,65.09
2023-05-05T18:35:21.462Z,67.64
2023-05-05T18:40:26.743Z,67.10
2023-05-05T18:45:30.783Z,68.15
2023-05-05T18:50:34.763Z,68.04
2023-05-05T18:55:40.116Z,68.85
2023-05-05T19:00:44.048Z,69.32
2023-05-05T19:05:47.933Z,70.17
2023-05-05T19:10:53.396Z,69.26
2023-05-05T19:15:58.050Z,71.88
2023-05-05T19:21:01.981Z,71.86
2023-05-05T19:26:07.317Z,72.12
2023-05-05T19:31:11.286Z,73.51
2023-05-05T19:36:15.694Z,74.89
2023-05-05T19:41:21.195Z,77.96
2023-05-05T19:46:26.518Z,78.88
2023-05-05T19:51:32.231Z,78.19
2023-05-05T19:56:37.672Z,78.34
2023-05-05T20:01:41.599Z,79.15
2023-05-05T20:06:48.206Z,80.47
2023-05-05T20:11:53.514Z,80.11
2023-05-05T20:16:58.660Z,80.93
2023-05-05T20:22:03.169Z,80.39
2023-05-05T20:27:08.458Z,82.34
2023-05-05T20:32:12.669Z,82.96
2023-05-05T20:37:16.675Z,85.17
2023-05-05T20:42:23.144Z,86.77
2023-05-05T20:47:27.092Z,84.46
2023-05-05T20:52:32.069Z,87.71
2023-05-05T20:57:37.924Z,87.12
2023-05-05T21:02:42.331Z,89.57
2023-05-05T21:07:46.736Z,90.69
2023-05-05T21:13:07.642Z,92.90
2023-05-05T21:18:11.701Z,93.69
2023-05-05T21:23:15.600Z,93.06
2023-05-05T21:28:20.996Z,96.67
2023-05-05T21:33:25.005Z,98.90
2023-05-05T21:38:28.915Z,100.00
2023-05-05T21:43:34.162Z,100.00
2023-05-05T21:48:39.075Z,100.00
2023-05-05T21:53:44.460Z,100.00
2023-05-05T21:58:52.774Z,100.00
2023-05-05T22:03:56.757Z,100.00
2023-05-05T22:09:01.035Z,100.00
2023-05-05T22:14:06.280Z,100.00
2023-05-05T22:19:10.460Z,100.00
2023-05-05T22:24:14.458Z,100.00
2023-05-05T22:29:19.692Z,100.00
2023-05-05T22:34:23.962Z,100.00
2023-05-05T22:39:27.966Z,100.00
2023-05-05T22:44:33.236Z,100.00
2023-05-05T22:49:37.166Z,100.00
2023-05-05T22:54:41.399Z,100.00
2023-05-05T22:59:46.715Z,100.00
2023-05-05T23:04:51.253Z,100.00
2023-05-05T23:09:55.340Z,100.00
2023-05-05T23:15:00.676Z,100.00
2023-05-05T23:20:05.871Z,100.00
2023-05-05T23:25:10.711Z,100.00
2023-05-05T23:30:16.787Z,100.00
2023-05-05T23:35:20.841Z,100.00
2023-05-05T23:40:25.031Z,100.00
2023-05-05T23:45:30.443Z,100.00
2023-05-05T23:50:34.304Z,100.00
2023-05-05T23:55:38.165Z,100.00
